sensor_id;sensor_type;location;lat;lon;timestamp;P1;durP1;ratioP1;P2;durP2;ratioP2
23578;SDS011;11967;50.852;4.400;2023-02-26T00:01:47;15.57;;;4.65;;
23578;SDS011;11967;50.852;4.400;2023-02-26T00:04:14;12.95;;;4.03;;
23578;SDS011;11967;50.852;4.400;2023-02-26T00:06:39;11.35;;;4.00;;
23578;SDS011;11967;50.852;4.400;2023-02-26T00:09:19;13.40;;;3.95;;
23578;SDS011;11967;50.852;4.400;2023-02-26T00:11:47;11.88;;;3.83;;
23578;SDS011;11967;50.852;4.400;2023-02-26T00:14:14;9.38;;;3.45;;
23578;SDS011;11967;50.852;4.400;2023-02-26T00:16:40;12.88;;;4.03;;
23578;SDS011;11967;50.852;4.400;2023-02-26T00:19:06;14.07;;;4.32;;
23578;SDS011;11967;50.852;4.400;2023-02-26T00:21:34;14.13;;;4.22;;
23578;SDS011;11967;50.852;4.400;2023-02-26T00:24:00;11.55;;;3.70;;
23578;SDS011;11967;50.852;4.400;2023-02-26T00:26:27;11.23;;;3.60;;
23578;SDS011;11967;50.852;4.400;2023-02-26T00:28:54;17.15;;;4.35;;
23578;SDS011;11967;50.852;4.400;2023-02-26T00:31:20;16.10;;;4.50;;
23578;SDS011;11967;50.852;4.400;2023-02-26T00:33:50;15.80;;;3.95;;
23578;SDS011;11967;50.852;4.400;2023-02-26T00:36:41;12.95;;;4.03;;
23578;SDS011;11967;50.852;4.400;2023-02-26T00:42:07;17.13;;;4.38;;
23578;SDS011;11967;50.852;4.400;2023-02-26T00:44:33;17.33;;;5.53;;
23578;SDS011;11967;50.852;4.400;2023-02-26T00:46:59;17.48;;;4.68;;
23578;SDS011;11967;50.852;4.400;2023-02-26T00:53:06;12.10;;;3.55;;
23578;SDS011;11967;50.852;4.400;2023-02-26T00:55:09;11.57;;;3.97;;
23578;SDS011;11967;50.852;4.400;2023-02-26T00:57:34;14.35;;;3.50;;
23578;SDS011;11967;50.852;4.400;2023-02-26T01:00:00;14.35;;;4.10;;
23578;SDS011;11967;50.852;4.400;2023-02-26T01:02:26;16.15;;;4.00;;
23578;SDS011;11967;50.852;4.400;2023-02-26T01:04:52;16.23;;;4.53;;
23578;SDS011;11967;50.852;4.400;2023-02-26T01:07:18;14.40;;;3.90;;
23578;SDS011;11967;50.852;4.400;2023-02-26T01:09:48;16.70;;;4.07;;
23578;SDS011;11967;50.852;4.400;2023-02-26T01:12:14;11.35;;;3.90;;
23578;SDS011;11967;50.852;4.400;2023-02-26T01:14:42;17.60;;;4.88;;
23578;SDS011;11967;50.852;4.400;2023-02-26T01:22:30;12.98;;;4.60;;
23578;SDS011;11967;50.852;4.400;2023-02-26T01:25:14;13.80;;;4.28;;
23578;SDS011;11967;50.852;4.400;2023-02-26T01:27:45;15.90;;;4.03;;
23578;SDS011;11967;50.852;4.400;2023-02-26T01:30:11;13.43;;;4.53;;
23578;SDS011;11967;50.852;4.400;2023-02-26T01:32:42;16.98;;;4.05;;
23578;SDS011;11967;50.852;4.400;2023-02-26T01:35:28;19.17;;;4.35;;
23578;SDS011;11967;50.852;4.400;2023-02-26T01:46:25;13.05;;;3.85;;
23578;SDS011;11967;50.852;4.400;2023-02-26T01:48:53;11.18;;;4.22;;
23578;SDS011;11967;50.852;4.400;2023-02-26T01:51:42;12.85;;;3.95;;
23578;SDS011;11967;50.852;4.400;2023-02-26T01:54:19;16.60;;;4.25;;
23578;SDS011;11967;50.852;4.400;2023-02-26T01:56:48;16.58;;;4.47;;
23578;SDS011;11967;50.852;4.400;2023-02-26T01:59:17;14.95;;;3.92;;
23578;SDS011;11967;50.852;4.400;2023-02-26T02:01:48;9.93;;;4.20;;
23578;SDS011;11967;50.852;4.400;2023-02-26T02:04:19;12.95;;;4.53;;
23578;SDS011;11967;50.852;4.400;2023-02-26T02:06:46;10.25;;;4.40;;
23578;SDS011;11967;50.852;4.400;2023-02-26T02:09:12;16.40;;;4.38;;
23578;SDS011;11967;50.852;4.400;2023-02-26T02:11:39;13.70;;;3.92;;
23578;SDS011;11967;50.852;4.400;2023-02-26T02:14:40;13.98;;;4.40;;
23578;SDS011;11967;50.852;4.400;2023-02-26T02:17:11;12.18;;;4.32;;
23578;SDS011;11967;50.852;4.400;2023-02-26T02:22:39;10.40;;;3.53;;
23578;SDS011;11967;50.852;4.400;2023-02-26T02:30:53;12.20;;;4.47;;
23578;SDS011;11967;50.852;4.400;2023-02-26T02:33:27;13.95;;;3.90;;
23578;SDS011;11967;50.852;4.400;2023-02-26T02:36:06;15.77;;;4.47;;
23578;SDS011;11967;50.852;4.400;2023-02-26T02:38:42;15.82;;;3.95;;
23578;SDS011;11967;50.852;4.400;2023-02-26T02:41:18;11.98;;;3.78;;
23578;SDS011;11967;50.852;4.400;2023-02-26T02:43:55;11.35;;;3.75;;
23578;SDS011;11967;50.852;4.400;2023-02-26T02:46:26;12.35;;;4.20;;
23578;SDS011;11967;50.852;4.400;2023-02-26T02:48:59;13.80;;;3.80;;
23578;SDS011;11967;50.852;4.400;2023-02-26T02:51:29;14.43;;;3.90;;
23578;SDS011;11967;50.852;4.400;2023-02-26T02:56:41;9.52;;;3.17;;
23578;SDS011;11967;50.852;4.400;2023-02-26T03:02:12;9.15;;;3.13;;
23578;SDS011;11967;50.852;4.400;2023-02-26T03:04:43;13.00;;;2.70;;
23578;SDS011;11967;50.852;4.400;2023-02-26T03:07:09;12.18;;;3.13;;
23578;SDS011;11967;50.852;4.400;2023-02-26T03:09:36;14.23;;;3.25;;
23578;SDS011;11967;50.852;4.400;2023-02-26T03:12:02;10.77;;;3.00;;
23578;SDS011;11967;50.852;4.400;2023-02-26T03:14:28;13.10;;;3.30;;
23578;SDS011;11967;50.852;4.400;2023-02-26T03:16:59;8.77;;;2.78;;
23578;SDS011;11967;50.852;4.400;2023-02-26T03:23:13;10.52;;;3.00;;
23578;SDS011;11967;50.852;4.400;2023-02-26T03:25:17;9.85;;;3.03;;
23578;SDS011;11967;50.852;4.400;2023-02-26T03:33:28;9.80;;;2.85;;
23578;SDS011;11967;50.852;4.400;2023-02-26T03:38:37;10.13;;;2.80;;
23578;SDS011;11967;50.852;4.400;2023-02-26T03:41:16;16.20;;;2.85;;
23578;SDS011;11967;50.852;4.400;2023-02-26T03:43:49;9.93;;;2.60;;
23578;SDS011;11967;50.852;4.400;2023-02-26T03:46:23;9.55;;;2.70;;
23578;SDS011;11967;50.852;4.400;2023-02-26T03:48:53;13.75;;;2.83;;
23578;SDS011;11967;50.852;4.400;2023-02-26T03:51:22;8.98;;;2.40;;
23578;SDS011;11967;50.852;4.400;2023-02-26T03:53:51;6.55;;;2.17;;
23578;SDS011;11967;50.852;4.400;2023-02-26T03:58:50;10.55;;;2.90;;
23578;SDS011;11967;50.852;4.400;2023-02-26T04:01:18;7.97;;;2.65;;
23578;SDS011;11967;50.852;4.400;2023-02-26T04:04:01;12.48;;;2.60;;
23578;SDS011;11967;50.852;4.400;2023-02-26T04:06:47;8.85;;;3.13;;
23578;SDS011;11967;50.852;4.400;2023-02-26T04:09:17;10.05;;;2.85;;
23578;SDS011;11967;50.852;4.400;2023-02-26T04:11:43;16.60;;;2.83;;
23578;SDS011;11967;50.852;4.400;2023-02-26T04:14:10;12.82;;;3.00;;
23578;SDS011;11967;50.852;4.400;2023-02-26T04:16:36;9.68;;;2.65;;
23578;SDS011;11967;50.852;4.400;2023-02-26T04:19:01;7.82;;;2.38;;
23578;SDS011;11967;50.852;4.400;2023-02-26T04:21:27;7.45;;;2.58;;
23578;SDS011;11967;50.852;4.400;2023-02-26T04:23:52;8.82;;;2.28;;
23578;SDS011;11967;50.852;4.400;2023-02-26T04:26:18;9.20;;;2.67;;
23578;SDS011;11967;50.852;4.400;2023-02-26T04:28:44;9.50;;;2.58;;
23578;SDS011;11967;50.852;4.400;2023-02-26T04:31:09;10.60;;;2.65;;
23578;SDS011;11967;50.852;4.400;2023-02-26T04:33:35;11.00;;;2.58;;
23578;SDS011;11967;50.852;4.400;2023-02-26T04:36:01;13.23;;;3.00;;
23578;SDS011;11967;50.852;4.400;2023-02-26T04:38:27;11.95;;;2.40;;
23578;SDS011;11967;50.852;4.400;2023-02-26T04:40:53;16.63;;;2.78;;
23578;SDS011;11967;50.852;4.400;2023-02-26T04:43:18;8.18;;;2.58;;
23578;SDS011;11967;50.852;4.400;2023-02-26T04:45:45;12.15;;;3.08;;
23578;SDS011;11967;50.852;4.400;2023-02-26T04:48:11;13.90;;;2.88;;
23578;SDS011;11967;50.852;4.400;2023-02-26T04:50:37;7.28;;;2.83;;
23578;SDS011;11967;50.852;4.400;2023-02-26T04:53:03;7.72;;;2.60;;
23578;SDS011;11967;50.852;4.400;2023-02-26T04:55:29;12.05;;;2.50;;
23578;SDS011;11967;50.852;4.400;2023-02-26T04:57:54;10.80;;;2.47;;
23578;SDS011;11967;50.852;4.400;2023-02-26T05:00:20;5.70;;;2.25;;
23578;SDS011;11967;50.852;4.400;2023-02-26T05:02:46;8.38;;;2.95;;
23578;SDS011;11967;50.852;4.400;2023-02-26T05:05:11;6.35;;;2.22;;
23578;SDS011;11967;50.852;4.400;2023-02-26T05:07:37;12.32;;;2.40;;
23578;SDS011;11967;50.852;4.400;2023-02-26T05:10:04;10.15;;;3.03;;
23578;SDS011;11967;50.852;4.400;2023-02-26T05:12:31;8.50;;;1.95;;
23578;SDS011;11967;50.852;4.400;2023-02-26T05:14:57;10.82;;;2.45;;
23578;SDS011;11967;50.852;4.400;2023-02-26T05:17:23;8.88;;;2.35;;
23578;SDS011;11967;50.852;4.400;2023-02-26T05:19:48;7.03;;;2.35;;
23578;SDS011;11967;50.852;4.400;2023-02-26T05:22:28;6.40;;;2.13;;
23578;SDS011;11967;50.852;4.400;2023-02-26T05:24:54;7.35;;;2.00;;
23578;SDS011;11967;50.852;4.400;2023-02-26T05:27:20;10.07;;;2.30;;
23578;SDS011;11967;50.852;4.400;2023-02-26T05:29:45;9.52;;;2.55;;
23578;SDS011;11967;50.852;4.400;2023-02-26T05:32:11;9.45;;;2.97;;
23578;SDS011;11967;50.852;4.400;2023-02-26T05:34:38;8.35;;;2.30;;
23578;SDS011;11967;50.852;4.400;2023-02-26T05:37:03;5.55;;;2.17;;
23578;SDS011;11967;50.852;4.400;2023-02-26T05:39:29;8.57;;;2.25;;
23578;SDS011;11967;50.852;4.400;2023-02-26T05:41:54;4.55;;;1.85;;
23578;SDS011;11967;50.852;4.400;2023-02-26T05:44:22;9.68;;;2.63;;
23578;SDS011;11967;50.852;4.400;2023-02-26T05:46:47;8.43;;;2.20;;
23578;SDS011;11967;50.852;4.400;2023-02-26T05:49:13;9.63;;;2.30;;
23578;SDS011;11967;50.852;4.400;2023-02-26T05:51:39;8.35;;;2.13;;
23578;SDS011;11967;50.852;4.400;2023-02-26T05:54:06;9.18;;;2.05;;
23578;SDS011;11967;50.852;4.400;2023-02-26T05:56:32;10.18;;;2.17;;
23578;SDS011;11967;50.852;4.400;2023-02-26T05:58:58;9.82;;;2.13;;
23578;SDS011;11967;50.852;4.400;2023-02-26T06:01:23;6.97;;;2.00;;
23578;SDS011;11967;50.852;4.400;2023-02-26T06:03:49;10.50;;;2.60;;
23578;SDS011;11967;50.852;4.400;2023-02-26T06:06:15;7.00;;;2.20;;
23578;SDS011;11967;50.852;4.400;2023-02-26T06:08:42;12.65;;;2.75;;
23578;SDS011;11967;50.852;4.400;2023-02-26T06:11:11;7.45;;;2.28;;
23578;SDS011;11967;50.852;4.400;2023-02-26T06:13:37;10.52;;;2.20;;
23578;SDS011;11967;50.852;4.400;2023-02-26T06:16:03;10.68;;;2.05;;
23578;SDS011;11967;50.852;4.400;2023-02-26T06:18:29;9.57;;;2.20;;
23578;SDS011;11967;50.852;4.400;2023-02-26T06:20:56;12.40;;;2.10;;
23578;SDS011;11967;50.852;4.400;2023-02-26T06:23:22;7.07;;;1.90;;
23578;SDS011;11967;50.852;4.400;2023-02-26T06:25:49;7.97;;;1.80;;
23578;SDS011;11967;50.852;4.400;2023-02-26T06:28:16;8.68;;;2.30;;
23578;SDS011;11967;50.852;4.400;2023-02-26T06:30:41;8.75;;;2.38;;
23578;SDS011;11967;50.852;4.400;2023-02-26T06:33:08;9.40;;;2.13;;
23578;SDS011;11967;50.852;4.400;2023-02-26T06:35:34;5.38;;;1.80;;
23578;SDS011;11967;50.852;4.400;2023-02-26T06:37:59;10.25;;;2.10;;
23578;SDS011;11967;50.852;4.400;2023-02-26T06:40:25;7.28;;;2.13;;
23578;SDS011;11967;50.852;4.400;2023-02-26T06:42:51;24.95;;;2.67;;
23578;SDS011;11967;50.852;4.400;2023-02-26T06:45:16;8.27;;;1.85;;
23578;SDS011;11967;50.852;4.400;2023-02-26T06:47:42;7.70;;;1.88;;
23578;SDS011;11967;50.852;4.400;2023-02-26T06:50:08;6.15;;;1.98;;
23578;SDS011;11967;50.852;4.400;2023-02-26T06:52:34;6.18;;;1.85;;
23578;SDS011;11967;50.852;4.400;2023-02-26T06:55:00;8.30;;;1.98;;
23578;SDS011;11967;50.852;4.400;2023-02-26T06:57:25;11.07;;;2.03;;
23578;SDS011;11967;50.852;4.400;2023-02-26T06:59:51;7.28;;;2.10;;
23578;SDS011;11967;50.852;4.400;2023-02-26T07:02:18;13.93;;;2.38;;
23578;SDS011;11967;50.852;4.400;2023-02-26T07:04:45;9.60;;;2.58;;
23578;SDS011;11967;50.852;4.400;2023-02-26T07:07:11;8.75;;;2.25;;
23578;SDS011;11967;50.852;4.400;2023-02-26T07:09:37;9.55;;;1.95;;
23578;SDS011;11967;50.852;4.400;2023-02-26T07:12:03;11.38;;;2.30;;
23578;SDS011;11967;50.852;4.400;2023-02-26T07:14:31;7.15;;;2.25;;
23578;SDS011;11967;50.852;4.400;2023-02-26T07:16:57;9.20;;;2.30;;
23578;SDS011;11967;50.852;4.400;2023-02-26T07:19:22;8.30;;;2.13;;
23578;SDS011;11967;50.852;4.400;2023-02-26T07:21:49;10.05;;;2.17;;
23578;SDS011;11967;50.852;4.400;2023-02-26T07:24:15;9.52;;;1.80;;
23578;SDS011;11967;50.852;4.400;2023-02-26T07:26:40;6.22;;;1.88;;
23578;SDS011;11967;50.852;4.400;2023-02-26T07:29:06;7.28;;;1.65;;
23578;SDS011;11967;50.852;4.400;2023-02-26T07:31:31;10.25;;;1.98;;
23578;SDS011;11967;50.852;4.400;2023-02-26T07:33:57;10.20;;;2.17;;
23578;SDS011;11967;50.852;4.400;2023-02-26T07:36:23;10.05;;;1.60;;
23578;SDS011;11967;50.852;4.400;2023-02-26T07:38:48;7.90;;;1.65;;
23578;SDS011;11967;50.852;4.400;2023-02-26T07:41:14;7.20;;;1.90;;
23578;SDS011;11967;50.852;4.400;2023-02-26T07:43:39;9.00;;;2.10;;
23578;SDS011;11967;50.852;4.400;2023-02-26T07:46:06;4.75;;;1.60;;
23578;SDS011;11967;50.852;4.400;2023-02-26T07:48:32;6.18;;;2.05;;
23578;SDS011;11967;50.852;4.400;2023-02-26T07:50:58;5.57;;;1.65;;
23578;SDS011;11967;50.852;4.400;2023-02-26T07:53:23;7.05;;;1.52;;
23578;SDS011;11967;50.852;4.400;2023-02-26T07:55:50;8.43;;;2.33;;
23578;SDS011;11967;50.852;4.400;2023-02-26T07:58:15;7.93;;;1.98;;
23578;SDS011;11967;50.852;4.400;2023-02-26T08:00:41;11.88;;;2.05;;
23578;SDS011;11967;50.852;4.400;2023-02-26T08:03:07;10.20;;;1.83;;
23578;SDS011;11967;50.852;4.400;2023-02-26T08:05:33;8.80;;;2.00;;
23578;SDS011;11967;50.852;4.400;2023-02-26T08:07:58;7.60;;;1.90;;
23578;SDS011;11967;50.852;4.400;2023-02-26T08:10:26;7.15;;;1.85;;
23578;SDS011;11967;50.852;4.400;2023-02-26T08:12:52;7.90;;;1.88;;
23578;SDS011;11967;50.852;4.400;2023-02-26T08:15:17;8.45;;;3.50;;
23578;SDS011;11967;50.852;4.400;2023-02-26T08:17:43;17.27;;;7.70;;
23578;SDS011;11967;50.852;4.400;2023-02-26T08:20:09;13.90;;;2.50;;
23578;SDS011;11967;50.852;4.400;2023-02-26T08:22:36;6.78;;;1.65;;
23578;SDS011;11967;50.852;4.400;2023-02-26T08:25:02;24.63;;;9.73;;
23578;SDS011;11967;50.852;4.400;2023-02-26T08:27:29;18.67;;;7.05;;
23578;SDS011;11967;50.852;4.400;2023-02-26T08:29:54;9.80;;;2.03;;
23578;SDS011;11967;50.852;4.400;2023-02-26T08:32:20;11.15;;;1.92;;
23578;SDS011;11967;50.852;4.400;2023-02-26T08:34:47;7.03;;;1.60;;
23578;SDS011;11967;50.852;4.400;2023-02-26T08:37:13;11.15;;;2.00;;
23578;SDS011;11967;50.852;4.400;2023-02-26T08:39:40;6.97;;;1.48;;
23578;SDS011;11967;50.852;4.400;2023-02-26T08:42:06;6.18;;;1.95;;
23578;SDS011;11967;50.852;4.400;2023-02-26T08:44:33;12.15;;;2.00;;
23578;SDS011;11967;50.852;4.400;2023-02-26T08:46:59;6.85;;;1.75;;
23578;SDS011;11967;50.852;4.400;2023-02-26T08:49:24;4.68;;;1.88;;
23578;SDS011;11967;50.852;4.400;2023-02-26T08:51:50;6.85;;;1.90;;
23578;SDS011;11967;50.852;4.400;2023-02-26T08:54:15;7.53;;;2.10;;
23578;SDS011;11967;50.852;4.400;2023-02-26T08:56:41;9.00;;;2.00;;
23578;SDS011;11967;50.852;4.400;2023-02-26T08:59:07;8.52;;;1.83;;
23578;SDS011;11967;50.852;4.400;2023-02-26T09:01:34;5.22;;;1.83;;
23578;SDS011;11967;50.852;4.400;2023-02-26T09:04:00;7.15;;;1.70;;
23578;SDS011;11967;50.852;4.400;2023-02-26T09:06:25;5.90;;;1.80;;
23578;SDS011;11967;50.852;4.400;2023-02-26T09:08:51;4.93;;;1.60;;
23578;SDS011;11967;50.852;4.400;2023-02-26T09:11:17;7.90;;;1.77;;
23578;SDS011;11967;50.852;4.400;2023-02-26T09:13:42;19.02;;;8.20;;
23578;SDS011;11967;50.852;4.400;2023-02-26T09:16:08;7.95;;;3.03;;
23578;SDS011;11967;50.852;4.400;2023-02-26T09:18:34;9.15;;;1.95;;
23578;SDS011;11967;50.852;4.400;2023-02-26T09:20:59;8.85;;;1.90;;
23578;SDS011;11967;50.852;4.400;2023-02-26T09:23:25;7.35;;;1.98;;
23578;SDS011;11967;50.852;4.400;2023-02-26T09:25:55;8.52;;;1.90;;
23578;SDS011;11967;50.852;4.400;2023-02-26T09:28:22;5.07;;;1.55;;
23578;SDS011;11967;50.852;4.400;2023-02-26T09:30:54;9.57;;;1.73;;
23578;SDS011;11967;50.852;4.400;2023-02-26T09:33:21;7.65;;;1.63;;
23578;SDS011;11967;50.852;4.400;2023-02-26T09:35:47;4.25;;;1.38;;
23578;SDS011;11967;50.852;4.400;2023-02-26T09:38:14;3.45;;;1.10;;
23578;SDS011;11967;50.852;4.400;2023-02-26T09:46:02;8.70;;;1.90;;
23578;SDS011;11967;50.852;4.400;2023-02-26T09:48:35;4.13;;;1.50;;
23578;SDS011;11967;50.852;4.400;2023-02-26T09:51:02;6.65;;;1.50;;
23578;SDS011;11967;50.852;4.400;2023-02-26T09:53:34;5.82;;;1.73;;
23578;SDS011;11967;50.852;4.400;2023-02-26T09:56:16;6.93;;;1.80;;
23578;SDS011;11967;50.852;4.400;2023-02-26T09:58:46;5.85;;;1.83;;
23578;SDS011;11967;50.852;4.400;2023-02-26T10:20:36;4.03;;;1.52;;
23578;SDS011;11967;50.852;4.400;2023-02-26T10:39:56;2.30;;;1.20;;
23578;SDS011;11967;50.852;4.400;2023-02-26T10:42:36;4.03;;;1.40;;
23578;SDS011;11967;50.852;4.400;2023-02-26T10:45:29;3.50;;;1.30;;
23578;SDS011;11967;50.852;4.400;2023-02-26T10:50:56;5.55;;;1.23;;
23578;SDS011;11967;50.852;4.400;2023-02-26T10:53:32;4.40;;;1.10;;
23578;SDS011;11967;50.852;4.400;2023-02-26T10:56:02;5.05;;;1.17;;
23578;SDS011;11967;50.852;4.400;2023-02-26T11:01:01;4.15;;;2.28;;
23578;SDS011;11967;50.852;4.400;2023-02-26T11:03:32;4.93;;;1.48;;
23578;SDS011;11967;50.852;4.400;2023-02-26T11:06:01;3.97;;;1.13;;
23578;SDS011;11967;50.852;4.400;2023-02-26T11:08:34;3.70;;;1.23;;
23578;SDS011;11967;50.852;4.400;2023-02-26T11:11:10;3.25;;;1.20;;
23578;SDS011;11967;50.852;4.400;2023-02-26T11:13:55;2.03;;;1.02;;
23578;SDS011;11967;50.852;4.400;2023-02-26T11:16:21;3.42;;;1.10;;
23578;SDS011;11967;50.852;4.400;2023-02-26T11:18:47;2.85;;;1.20;;
23578;SDS011;11967;50.852;4.400;2023-02-26T11:21:18;3.63;;;1.60;;
23578;SDS011;11967;50.852;4.400;2023-02-26T11:23:48;5.18;;;1.83;;
23578;SDS011;11967;50.852;4.400;2023-02-26T11:26:18;6.13;;;1.60;;
23578;SDS011;11967;50.852;4.400;2023-02-26T11:28:49;3.17;;;1.20;;
23578;SDS011;11967;50.852;4.400;2023-02-26T11:31:20;2.70;;;1.17;;
23578;SDS011;11967;50.852;4.400;2023-02-26T11:33:49;2.42;;;1.20;;
23578;SDS011;11967;50.852;4.400;2023-02-26T11:36:24;4.63;;;1.67;;
23578;SDS011;11967;50.852;4.400;2023-02-26T11:38:54;4.30;;;1.33;;
23578;SDS011;11967;50.852;4.400;2023-02-26T11:41:29;4.50;;;1.65;;
23578;SDS011;11967;50.852;4.400;2023-02-26T11:44:04;4.47;;;1.38;;
23578;SDS011;11967;50.852;4.400;2023-02-26T11:46:42;4.82;;;1.27;;
23578;SDS011;11967;50.852;4.400;2023-02-26T11:49:13;4.00;;;1.30;;
23578;SDS011;11967;50.852;4.400;2023-02-26T11:51:41;4.85;;;1.20;;
23578;SDS011;11967;50.852;4.400;2023-02-26T11:54:20;4.43;;;1.33;;
23578;SDS011;11967;50.852;4.400;2023-02-26T11:56:49;2.35;;;1.35;;
23578;SDS011;11967;50.852;4.400;2023-02-26T11:59:22;3.45;;;1.20;;
23578;SDS011;11967;50.852;4.400;2023-02-26T12:01:50;5.80;;;1.30;;
23578;SDS011;11967;50.852;4.400;2023-02-26T12:04:18;2.30;;;1.10;;
23578;SDS011;11967;50.852;4.400;2023-02-26T12:06:49;3.97;;;1.30;;
23578;SDS011;11967;50.852;4.400;2023-02-26T12:09:17;3.72;;;1.38;;
23578;SDS011;11967;50.852;4.400;2023-02-26T12:14:36;10.13;;;2.08;;
23578;SDS011;11967;50.852;4.400;2023-02-26T12:25:22;4.32;;;1.38;;
23578;SDS011;11967;50.852;4.400;2023-02-26T12:42:47;4.78;;;1.80;;
23578;SDS011;11967;50.852;4.400;2023-02-26T12:53:09;2.97;;;1.50;;
23578;SDS011;11967;50.852;4.400;2023-02-26T13:09:54;3.95;;;1.30;;
23578;SDS011;11967;50.852;4.400;2023-02-26T13:12:48;4.13;;;1.70;;
23578;SDS011;11967;50.852;4.400;2023-02-26T13:18:11;5.82;;;1.23;;
23578;SDS011;11967;50.852;4.400;2023-02-26T13:20:39;5.88;;;1.50;;
23578;SDS011;11967;50.852;4.400;2023-02-26T13:23:13;5.75;;;1.42;;
23578;SDS011;11967;50.852;4.400;2023-02-26T13:28:34;3.20;;;1.48;;
23578;SDS011;11967;50.852;4.400;2023-02-26T13:31:07;3.08;;;1.63;;
23578;SDS011;11967;50.852;4.400;2023-02-26T13:33:40;3.60;;;1.10;;
23578;SDS011;11967;50.852;4.400;2023-02-26T13:36:08;6.18;;;1.52;;
23578;SDS011;11967;50.852;4.400;2023-02-26T13:44:34;3.67;;;1.35;;
23578;SDS011;11967;50.852;4.400;2023-02-26T13:52:53;6.47;;;2.00;;
23578;SDS011;11967;50.852;4.400;2023-02-26T13:55:37;2.88;;;1.20;;
23578;SDS011;11967;50.852;4.400;2023-02-26T13:58:17;3.35;;;1.20;;
23578;SDS011;11967;50.852;4.400;2023-02-26T14:00:46;1.70;;;1.00;;
23578;SDS011;11967;50.852;4.400;2023-02-26T14:03:33;3.97;;;1.02;;
23578;SDS011;11967;50.852;4.400;2023-02-26T14:09:05;2.25;;;1.10;;
23578;SDS011;11967;50.852;4.400;2023-02-26T14:11:59;3.50;;;0.90;;
23578;SDS011;11967;50.852;4.400;2023-02-26T14:24:37;3.85;;;1.10;;
23578;SDS011;11967;50.852;4.400;2023-02-26T14:34:36;2.58;;;1.45;;
23578;SDS011;11967;50.852;4.400;2023-02-26T14:37:18;3.88;;;1.20;;
23578;SDS011;11967;50.852;4.400;2023-02-26T14:40:02;3.25;;;1.15;;
23578;SDS011;11967;50.852;4.400;2023-02-26T14:47:53;2.50;;;1.23;;
23578;SDS011;11967;50.852;4.400;2023-02-26T14:50:21;6.50;;;1.38;;
23578;SDS011;11967;50.852;4.400;2023-02-26T14:58:18;4.32;;;1.30;;
23578;SDS011;11967;50.852;4.400;2023-02-26T15:00:55;4.22;;;1.08;;
23578;SDS011;11967;50.852;4.400;2023-02-26T15:11:37;4.55;;;1.33;;
23578;SDS011;11967;50.852;4.400;2023-02-26T15:14:53;3.65;;;1.33;;
23578;SDS011;11967;50.852;4.400;2023-02-26T15:17:32;2.90;;;1.15;;
23578;SDS011;11967;50.852;4.400;2023-02-26T15:25:42;6.68;;;1.88;;
23578;SDS011;11967;50.852;4.400;2023-02-26T15:28:11;8.05;;;4.63;;
23578;SDS011;11967;50.852;4.400;2023-02-26T15:30:43;4.23;;;2.13;;
23578;SDS011;11967;50.852;4.400;2023-02-26T15:33:12;4.53;;;1.70;;
23578;SDS011;11967;50.852;4.400;2023-02-26T15:35:40;5.43;;;1.90;;
23578;SDS011;11967;50.852;4.400;2023-02-26T15:38:07;6.30;;;2.13;;
23578;SDS011;11967;50.852;4.400;2023-02-26T15:40:34;5.18;;;1.70;;
23578;SDS011;11967;50.852;4.400;2023-02-26T15:43:02;5.15;;;1.50;;
23578;SDS011;11967;50.852;4.400;2023-02-26T15:45:39;3.85;;;1.55;;
23578;SDS011;11967;50.852;4.400;2023-02-26T15:48:11;4.38;;;1.52;;
23578;SDS011;11967;50.852;4.400;2023-02-26T15:50:41;3.13;;;1.30;;
23578;SDS011;11967;50.852;4.400;2023-02-26T15:53:11;5.97;;;2.20;;
23578;SDS011;11967;50.852;4.400;2023-02-26T15:55:44;4.37;;;1.83;;
23578;SDS011;11967;50.852;4.400;2023-02-26T15:58:15;4.55;;;1.60;;
23578;SDS011;11967;50.852;4.400;2023-02-26T16:00:50;6.47;;;1.98;;
23578;SDS011;11967;50.852;4.400;2023-02-26T16:03:23;4.72;;;1.70;;
23578;SDS011;11967;50.852;4.400;2023-02-26T16:05:50;4.65;;;1.55;;
23578;SDS011;11967;50.852;4.400;2023-02-26T16:08:18;27.73;;;16.55;;
23578;SDS011;11967;50.852;4.400;2023-02-26T16:10:44;10.80;;;4.93;;
23578;SDS011;11967;50.852;4.400;2023-02-26T16:13:13;3.70;;;1.63;;
23578;SDS011;11967;50.852;4.400;2023-02-26T16:15:40;2.25;;;1.15;;
23578;SDS011;11967;50.852;4.400;2023-02-26T16:18:08;3.13;;;1.30;;
23578;SDS011;11967;50.852;4.400;2023-02-26T16:20:46;2.53;;;1.55;;
23578;SDS011;11967;50.852;4.400;2023-02-26T16:23:14;2.78;;;1.42;;
23578;SDS011;11967;50.852;4.400;2023-02-26T16:25:53;4.70;;;1.45;;
23578;SDS011;11967;50.852;4.400;2023-02-26T16:28:28;2.60;;;1.40;;
23578;SDS011;11967;50.852;4.400;2023-02-26T16:30:56;6.18;;;1.73;;
23578;SDS011;11967;50.852;4.400;2023-02-26T16:33:24;2.15;;;1.20;;
23578;SDS011;11967;50.852;4.400;2023-02-26T16:36:02;3.88;;;1.50;;
23578;SDS011;11967;50.852;4.400;2023-02-26T16:38:31;4.15;;;1.40;;
23578;SDS011;11967;50.852;4.400;2023-02-26T16:41:07;6.38;;;1.52;;
23578;SDS011;11967;50.852;4.400;2023-02-26T16:46:05;2.60;;;1.17;;
23578;SDS011;11967;50.852;4.400;2023-02-26T16:49:22;3.95;;;1.60;;
23578;SDS011;11967;50.852;4.400;2023-02-26T16:51:26;4.50;;;1.45;;
23578;SDS011;11967;50.852;4.400;2023-02-26T16:54:00;2.92;;;1.30;;
23578;SDS011;11967;50.852;4.400;2023-02-26T16:56:32;4.65;;;1.40;;
23578;SDS011;11967;50.852;4.400;2023-02-26T16:59:06;5.00;;;1.40;;
23578;SDS011;11967;50.852;4.400;2023-02-26T17:01:46;5.03;;;1.52;;
23578;SDS011;11967;50.852;4.400;2023-02-26T17:04:21;4.03;;;1.60;;
23578;SDS011;11967;50.852;4.400;2023-02-26T17:06:50;3.88;;;1.42;;
23578;SDS011;11967;50.852;4.400;2023-02-26T17:09:50;5.03;;;1.60;;
23578;SDS011;11967;50.852;4.400;2023-02-26T17:12:16;4.45;;;1.50;;
23578;SDS011;11967;50.852;4.400;2023-02-26T17:14:46;6.97;;;1.60;;
23578;SDS011;11967;50.852;4.400;2023-02-26T17:17:21;6.07;;;1.73;;
23578;SDS011;11967;50.852;4.400;2023-02-26T17:19:49;5.93;;;2.08;;
23578;SDS011;11967;50.852;4.400;2023-02-26T17:22:16;6.05;;;1.63;;
23578;SDS011;11967;50.852;4.400;2023-02-26T17:24:48;4.20;;;1.70;;
23578;SDS011;11967;50.852;4.400;2023-02-26T17:27:16;4.63;;;1.50;;
23578;SDS011;11967;50.852;4.400;2023-02-26T17:29:51;6.30;;;1.95;;
23578;SDS011;11967;50.852;4.400;2023-02-26T17:32:18;6.70;;;2.55;;
23578;SDS011;11967;50.852;4.400;2023-02-26T17:34:49;11.63;;;3.85;;
23578;SDS011;11967;50.852;4.400;2023-02-26T17:37:17;21.38;;;8.50;;
23578;SDS011;11967;50.852;4.400;2023-02-26T17:39:43;23.48;;;8.60;;
23578;SDS011;11967;50.852;4.400;2023-02-26T17:42:14;20.05;;;7.63;;
23578;SDS011;11967;50.852;4.400;2023-02-26T17:44:41;14.88;;;5.15;;
23578;SDS011;11967;50.852;4.400;2023-02-26T17:47:14;7.75;;;3.47;;
23578;SDS011;11967;50.852;4.400;2023-02-26T17:49:41;4.97;;;2.67;;
23578;SDS011;11967;50.852;4.400;2023-02-26T17:52:07;6.70;;;2.70;;
23578;SDS011;11967;50.852;4.400;2023-02-26T17:54:33;8.05;;;2.70;;
23578;SDS011;11967;50.852;4.400;2023-02-26T17:56:58;5.75;;;2.83;;
23578;SDS011;11967;50.852;4.400;2023-02-26T17:59:24;6.63;;;2.50;;
23578;SDS011;11967;50.852;4.400;2023-02-26T18:01:50;6.10;;;2.53;;
23578;SDS011;11967;50.852;4.400;2023-02-26T18:04:17;6.60;;;3.17;;
23578;SDS011;11967;50.852;4.400;2023-02-26T18:06:44;5.75;;;2.20;;
23578;SDS011;11967;50.852;4.400;2023-02-26T18:09:10;5.65;;;2.55;;
23578;SDS011;11967;50.852;4.400;2023-02-26T18:11:38;6.30;;;2.38;;
23578;SDS011;11967;50.852;4.400;2023-02-26T18:14:05;7.40;;;2.78;;
23578;SDS011;11967;50.852;4.400;2023-02-26T18:16:32;6.93;;;2.58;;
23578;SDS011;11967;50.852;4.400;2023-02-26T18:19:01;8.32;;;2.67;;
23578;SDS011;11967;50.852;4.400;2023-02-26T18:21:28;4.65;;;2.40;;
23578;SDS011;11967;50.852;4.400;2023-02-26T18:23:53;7.45;;;2.55;;
23578;SDS011;11967;50.852;4.400;2023-02-26T18:26:21;7.55;;;2.28;;